Time;durP1;ratioP1;P1;durP2;ratioP2;P2;SDS_P1;SDS_P2;PMS_P1;PMS_P2;Temp;Humidity;BMP_temperature;BMP_pressure;BME280_temperature;BME280_humidity;BME280_pressure;Samples;Min_cycle;Max_cycle;Signal;HPM_P1;HPM_P2
2023/07/24 00:02:13;;;;;;;3.92;2.05;;;;;;;;;;7377576;19;20480;-71
2023/07/24 00:04:38;;;;;;;4.72;2.15;;;;;;;;;;7399858;19;20074;-71
2023/07/24 00:07:04;;;;;;;4.82;2.30;;;;;;;;;;7377328;19;20038;-70
2023/07/24 00:09:29;;;;;;;6.50;2.20;;;;;;;;;;7377978;19;20416;-70
2023/07/24 00:11:55;;;;;;;5.40;2.50;;;;;;;;;;7371541;19;20010;-70
2023/07/24 00:14:20;;;;;;;4.35;2.03;;;;;;;;;;7371338;19;20014;-71
2023/07/24 00:16:45;;;;;;;5.60;2.10;;;;;;;;;;7391390;19;20014;-71
2023/07/24 00:19:11;;;;;;;4.47;2.40;;;;;;;;;;7370148;19;20372;-70
2023/07/24 00:21:36;;;;;;;5.13;2.22;;;;;;;;;;7366796;19;20078;-71
2023/07/24 00:24:01;;;;;;;5.63;2.20;;;;;;;;;;7369467;19;20010;-71
2023/07/24 00:26:26;;;;;;;4.35;2.00;;;;;;;;;;7367531;19;20007;-71
2023/07/24 00:28:52;;;;;;;3.88;2.05;;;;;;;;;;7387660;19;20006;-71
2023/07/24 00:31:17;;;;;;;3.83;1.90;;;;;;;;;;7368318;19;20042;-71
2023/07/24 00:33:43;;;;;;;3.78;1.95;;;;;;;;;;7367362;19;20487;-71
2023/07/24 00:36:08;;;;;;;4.10;2.20;;;;;;;;;;7367868;19;20434;-71
2023/07/24 00:38:33;;;;;;;4.10;2.35;;;;;;;;;;7366290;19;20015;-71
2023/07/24 00:40:59;;;;;;;4.10;1.90;;;;;;;;;;7368404;19;20006;-72
2023/07/24 00:43:24;;;;;;;4.15;2.10;;;;;;;;;;7391011;19;20095;-71
2023/07/24 00:45:49;;;;;;;4.93;2.10;;;;;;;;;;7367471;19;20006;-71
2023/07/24 00:48:15;;;;;;;5.05;2.22;;;;;;;;;;7369350;19;20035;-71
2023/07/24 00:50:43;;;;;;;5.25;2.22;;;;;;;;;;7368195;19;20034;-72
2023/07/24 00:53:11;;;;;;;4.85;2.13;;;;;;;;;;7371335;19;20014;-72
2023/07/24 00:55:36;;;;;;;3.40;1.90;;;;;;;;;;7392087;19;20780;-71
2023/07/24 00:58:03;;;;;;;6.10;2.33;;;;;;;;;;7373062;19;20015;-71
2023/07/24 01:00:28;;;;;;;3.45;2.00;;;;;;;;;;7377561;19;20029;-71
2023/07/24 01:02:55;;;;;;;4.30;2.10;;;;;;;;;;7379295;19;20010;-72
2023/07/24 01:05:23;;;;;;;3.95;2.10;;;;;;;;;;7375636;19;20505;-72
2023/07/24 01:07:48;;;;;;;4.57;2.20;;;;;;;;;;7391301;19;20521;-71
2023/07/24 01:10:14;;;;;;;3.97;2.08;;;;;;;;;;7368140;19;20021;-72
2023/07/24 01:13:06;;;;;;;4.57;1.83;;;;;;;;;;7367126;19;20384;-71
2023/07/24 01:16:00;;;;;;;3.22;2.00;;;;;;;;;;7366808;19;20018;-71
2023/07/24 01:18:28;;;;;;;4.22;2.13;;;;;;;;;;7366663;19;20006;-71
2023/07/24 01:20:56;;;;;;;5.07;2.20;;;;;;;;;;7366943;19;20006;-72
2023/07/24 01:23:40;;;;;;;4.47;2.08;;;;;;;;;;7363667;19;20014;-72
2023/07/24 01:26:06;;;;;;;4.57;2.08;;;;;;;;;;7366189;19;20720;-71
2023/07/24 01:28:32;;;;;;;5.30;2.03;;;;;;;;;;7384227;19;20014;-71
2023/07/24 01:30:57;;;;;;;3.75;2.08;;;;;;;;;;7363727;19;20007;-71
2023/07/24 01:33:23;;;;;;;6.50;2.22;;;;;;;;;;7364388;19;20021;-71
2023/07/24 01:35:56;;;;;;;3.85;2.20;;;;;;;;;;7364965;19;20011;-71
2023/07/24 01:38:24;;;;;;;4.78;2.10;;;;;;;;;;7364897;19;20725;-71
2023/07/24 01:40:51;;;;;;;6.70;2.42;;;;;;;;;;7384358;19;20010;-71
2023/07/24 01:43:17;;;;;;;4.75;2.40;;;;;;;;;;7366282;19;20365;-71
2023/07/24 01:45:42;;;;;;;3.30;2.00;;;;;;;;;;7366344;19;20019;-71
2023/07/24 01:48:07;;;;;;;3.67;2.13;;;;;;;;;;7366314;19;20015;-71
2023/07/24 01:50:32;;;;;;;4.80;2.17;;;;;;;;;;7365650;19;20006;-71
2023/07/24 01:52:58;;;;;;;4.20;2.00;;;;;;;;;;7367580;19;20391;-72
2023/07/24 01:55:23;;;;;;;6.30;2.17;;;;;;;;;;7387614;19;20492;-70
2023/07/24 01:57:49;;;;;;;3.65;1.90;;;;;;;;;;7366560;19;20135;-71
2023/07/24 02:00:14;;;;;;;4.97;2.25;;;;;;;;;;7364877;19;20024;-71
2023/07/24 02:02:39;;;;;;;3.70;1.90;;;;;;;;;;7364866;19;20019;-71
2023/07/24 02:05:05;;;;;;;5.47;2.47;;;;;;;;;;7366513;19;20014;-71
2023/07/24 02:07:30;;;;;;;4.40;2.28;;;;;;;;;;7386461;19;20018;-70
2023/07/24 02:09:56;;;;;;;6.80;2.55;;;;;;;;;;7363985;19;20036;-70
2023/07/24 02:12:21;;;;;;;10.10;2.40;;;;;;;;;;7366215;19;20015;-71
2023/07/24 02:14:49;;;;;;;5.38;2.00;;;;;;;;;;7365297;19;20018;-70
2023/07/24 02:17:15;;;;;;;3.78;2.20;;;;;;;;;;7366646;19;20026;-71
2023/07/24 02:19:40;;;;;;;4.57;2.25;;;;;;;;;;7387527;19;20019;-71
2023/07/24 02:22:06;;;;;;;4.55;2.10;;;;;;;;;;7362677;19;20068;-71
2023/07/24 02:24:31;;;;;;;6.72;2.40;;;;;;;;;;7365109;19;20033;-71
2023/07/24 02:26:56;;;;;;;5.55;2.28;;;;;;;;;;7366035;19;20019;-71
2023/07/24 02:29:22;;;;;;;5.47;2.30;;;;;;;;;;7365128;19;20089;-70
2023/07/24 02:31:47;;;;;;;5.03;2.30;;;;;;;;;;7385486;19;20398;-70
2023/07/24 02:34:13;;;;;;;4.07;2.00;;;;;;;;;;7362900;19;20029;-71
2023/07/24 02:36:39;;;;;;;6.15;2.10;;;;;;;;;;7364557;19;20066;-70
2023/07/24 02:39:04;;;;;;;3.85;2.25;;;;;;;;;;7362632;19;20031;-70
2023/07/24 02:41:29;;;;;;;4.55;2.40;;;;;;;;;;7363185;19;20014;-70
2023/07/24 02:43:54;;;;;;;3.38;2.05;;;;;;;;;;7384101;19;20022;-71
2023/07/24 02:46:20;;;;;;;4.97;2.42;;;;;;;;;;7371082;19;20732;-70
2023/07/24 02:48:45;;;;;;;5.18;2.58;;;;;;;;;;7365108;19;20014;-69
2023/07/24 02:51:10;;;;;;;7.10;2.78;;;;;;;;;;7364976;19;20107;-70
2023/07/24 02:53:36;;;;;;;5.35;2.50;;;;;;;;;;7366564;19;20110;-70
2023/07/24 02:56:02;;;;;;;5.38;2.45;;;;;;;;;;7372157;19;20573;-70
2023/07/24 02:58:27;;;;;;;4.43;2.50;;;;;;;;;;7388012;19;20059;-70
2023/07/24 03:00:53;;;;;;;4.30;2.13;;;;;;;;;;7362333;19;20006;-70
2023/07/24 03:03:18;;;;;;;5.05;2.50;;;;;;;;;;7366962;19;20022;-70
2023/07/24 03:05:43;;;;;;;5.82;2.30;;;;;;;;;;7364121;19;20025;-70
2023/07/24 03:08:09;;;;;;;4.80;2.55;;;;;;;;;;7366014;19;20030;-70
2023/07/24 03:10:34;;;;;;;5.38;2.50;;;;;;;;;;7385137;19;20096;-71
2023/07/24 03:12:59;;;;;;;4.88;2.60;;;;;;;;;;7366890;19;20014;-70
2023/07/24 03:15:25;;;;;;;4.80;2.40;;;;;;;;;;7366532;19;20025;-69
2023/07/24 03:17:50;;;;;;;4.72;2.42;;;;;;;;;;7363874;19;20054;-69
2023/07/24 03:20:18;;;;;;;5.15;2.53;;;;;;;;;;7362993;19;20034;-69
2023/07/24 03:22:44;;;;;;;4.97;2.35;;;;;;;;;;7385593;19;20018;-70
2023/07/24 03:25:09;;;;;;;4.68;2.30;;;;;;;;;;7364663;19;20011;-70
2023/07/24 03:27:35;;;;;;;5.82;2.55;;;;;;;;;;7364063;19;20404;-70
2023/07/24 03:30:00;;;;;;;4.80;2.22;;;;;;;;;;7363932;19;20015;-69
2023/07/24 03:32:25;;;;;;;4.75;2.40;;;;;;;;;;7362627;19;20014;-69
2023/07/24 03:34:51;;;;;;;5.45;2.45;;;;;;;;;;7385445;19;20101;-71
2023/07/24 03:37:16;;;;;;;5.25;2.35;;;;;;;;;;7362448;19;20022;-70
2023/07/24 03:39:41;;;;;;;8.30;2.45;;;;;;;;;;7363481;19;20521;-72
2023/07/24 03:42:10;;;;;;;5.28;2.38;;;;;;;;;;7362002;19;20605;-70
2023/07/24 03:44:35;;;;;;;5.93;2.55;;;;;;;;;;7363863;19;20013;-70
2023/07/24 03:47:00;;;;;;;4.60;2.47;;;;;;;;;;7367007;19;20007;-71
2023/07/24 03:49:25;;;;;;;4.82;2.65;;;;;;;;;;7389988;19;20002;-71
2023/07/24 03:51:51;;;;;;;6.22;2.40;;;;;;;;;;7367795;19;20540;-71
2023/07/24 03:54:16;;;;;;;6.43;2.35;;;;;;;;;;7369859;19;20019;-71
2023/07/24 03:56:41;;;;;;;6.00;3.00;;;;;;;;;;7369033;19;20014;-71
2023/07/24 03:59:07;;;;;;;7.30;2.45;;;;;;;;;;7368418;19;20014;-70
2023/07/24 04:01:32;;;;;;;4.70;2.47;;;;;;;;;;7391635;19;20002;-71
2023/07/24 04:03:58;;;;;;;5.13;2.45;;;;;;;;;;7371368;19;20464;-70
2023/07/24 04:06:24;;;;;;;5.13;2.40;;;;;;;;;;7370419;19;20051;-71
2023/07/24 04:08:49;;;;;;;5.05;2.50;;;;;;;;;;7367283;19;20014;-71
2023/07/24 04:11:14;;;;;;;6.00;2.60;;;;;;;;;;7369736;19;20725;-71
2023/07/24 04:13:40;;;;;;;5.57;2.40;;;;;;;;;;7390808;19;20029;-71
2023/07/24 04:16:05;;;;;;;5.20;2.30;;;;;;;;;;7368798;19;20448;-72
2023/07/24 04:18:31;;;;;;;9.50;2.97;;;;;;;;;;7367840;19;20024;-71
2023/07/24 04:20:56;;;;;;;5.47;2.55;;;;;;;;;;7369471;19;20017;-71
2023/07/24 04:23:21;;;;;;;5.22;2.42;;;;;;;;;;7365765;19;20048;-71
2023/07/24 04:25:49;;;;;;;5.93;2.70;;;;;;;;;;7388069;19;20018;-71
2023/07/24 04:28:14;;;;;;;4.60;2.40;;;;;;;;;;7363507;19;20010;-71
2023/07/24 04:30:40;;;;;;;6.18;2.63;;;;;;;;;;7365786;19;20085;-71
2023/07/24 04:33:05;;;;;;;5.32;2.50;;;;;;;;;;7365330;19;20014;-71
2023/07/24 04:35:31;;;;;;;7.97;2.70;;;;;;;;;;7364311;19;20015;-71
2023/07/24 04:37:57;;;;;;;4.90;2.72;;;;;;;;;;7370393;19;20050;-71
2023/07/24 04:40:23;;;;;;;4.82;2.60;;;;;;;;;;7386578;19;20043;-72
2023/07/24 04:42:48;;;;;;;5.63;2.83;;;;;;;;;;7370472;19;20014;-71
2023/07/24 04:45:13;;;;;;;5.32;2.65;;;;;;;;;;7367297;19;20011;-68
2023/07/24 04:47:39;;;;;;;5.78;2.58;;;;;;;;;;7367257;19;20410;-69
2023/07/24 04:50:05;;;;;;;7.93;2.80;;;;;;;;;;7368955;19;20035;-69
2023/07/24 04:52:30;;;;;;;6.43;2.55;;;;;;;;;;7388495;19;20014;-67
2023/07/24 04:54:55;;;;;;;6.97;2.53;;;;;;;;;;7366584;19;20035;-68
2023/07/24 04:57:21;;;;;;;6.95;2.55;;;;;;;;;;7367515;19;20014;-68
2023/07/24 04:59:46;;;;;;;7.85;2.42;;;;;;;;;;7360513;19;20011;-69
2023/07/24 05:02:11;;;;;;;7.35;2.67;;;;;;;;;;7368918;19;20006;-69
2023/07/24 05:04:37;;;;;;;6.68;2.88;;;;;;;;;;7388708;19;20015;-71
2023/07/24 05:07:02;;;;;;;6.18;2.70;;;;;;;;;;7368787;19;20006;-69
2023/07/24 05:09:27;;;;;;;6.55;3.00;;;;;;;;;;7369998;19;20038;-71
2023/07/24 05:11:53;;;;;;;5.65;2.58;;;;;;;;;;7367967;19;20535;-69
2023/07/24 05:14:18;;;;;;;5.88;2.80;;;;;;;;;;7370199;19;20010;-67
2023/07/24 05:16:43;;;;;;;6.97;2.70;;;;;;;;;;7389540;19;20048;-67
2023/07/24 05:19:09;;;;;;;8.80;2.72;;;;;;;;;;7365746;19;20010;-69
2023/07/24 05:21:34;;;;;;;6.07;2.85;;;;;;;;;;7366888;19;20401;-66
2023/07/24 05:23:59;;;;;;;9.68;2.83;;;;;;;;;;7363941;19;20035;-68
2023/07/24 05:26:25;;;;;;;8.73;3.05;;;;;;;;;;7366975;19;20022;-69
2023/07/24 05:28:50;;;;;;;13.63;2.75;;;;;;;;;;7386083;19;20615;-67
2023/07/24 05:31:15;;;;;;;6.07;3.10;;;;;;;;;;7364958;19;20856;-68
2023/07/24 05:33:40;;;;;;;7.43;3.03;;;;;;;;;;7364147;19;20603;-69
2023/07/24 05:36:06;;;;;;;7.25;2.90;;;;;;;;;;7366103;19;20014;-64
2023/07/24 05:38:31;;;;;;;11.55;2.90;;;;;;;;;;7357858;19;20018;-66
2023/07/24 05:40:58;;;;;;;6.93;2.67;;;;;;;;;;7359765;19;20014;-66
2023/07/24 05:43:24;;;;;;;7.40;3.30;;;;;;;;;;7380724;19;20017;-66
2023/07/24 05:45:53;;;;;;;7.07;2.60;;;;;;;;;;7363067;19;20006;-66
2023/07/24 05:48:18;;;;;;;9.38;2.60;;;;;;;;;;7366491;19;20349;-66
2023/07/24 05:50:43;;;;;;;7.32;2.70;;;;;;;;;;7363141;19;20017;-67
2023/07/24 05:53:09;;;;;;;5.95;2.85;;;;;;;;;;7367853;19;20024;-69
2023/07/24 05:55:34;;;;;;;6.43;2.60;;;;;;;;;;7392751;19;20007;-69
2023/07/24 05:58:00;;;;;;;6.78;2.90;;;;;;;;;;7373019;19;20013;-70
2023/07/24 06:00:25;;;;;;;7.53;2.67;;;;;;;;;;7369151;19;20023;-70
2023/07/24 06:02:50;;;;;;;5.07;2.30;;;;;;;;;;7367150;19;20584;-70
2023/07/24 06:05:16;;;;;;;5.32;2.45;;;;;;;;;;7366952;19;20041;-70
2023/07/24 06:07:41;;;;;;;6.13;2.55;;;;;;;;;;7385016;19;20006;-70
2023/07/24 06:10:07;;;;;;;7.38;2.47;;;;;;;;;;7364936;19;20022;-70
2023/07/24 06:12:32;;;;;;;6.75;2.72;;;;;;;;;;7362270;19;20014;-70
2023/07/24 06:14:57;;;;;;;5.20;2.78;;;;;;;;;;7364365;19;20047;-70
2023/07/24 06:17:23;;;;;;;7.28;2.60;;;;;;;;;;7367710;19;20006;-70
2023/07/24 06:19:48;;;;;;;5.38;2.50;;;;;;;;;;7388673;19;20005;-69
2023/07/24 06:22:16;;;;;;;9.50;2.55;;;;;;;;;;7366413;19;20349;-69
2023/07/24 06:24:42;;;;;;;6.97;2.85;;;;;;;;;;7364427;19;20015;-71
2023/07/24 06:27:07;;;;;;;5.70;2.90;;;;;;;;;;7366577;19;20089;-70
2023/07/24 06:29:33;;;;;;;6.95;3.00;;;;;;;;;;7367232;19;20048;-70
2023/07/24 06:31:58;;;;;;;10.05;3.17;;;;;;;;;;7365578;19;20014;-71
2023/07/24 06:34:23;;;;;;;8.85;3.22;;;;;;;;;;7388643;19;20006;-70
2023/07/24 06:36:49;;;;;;;8.70;2.97;;;;;;;;;;7366226;19;20007;-70
2023/07/24 06:39:14;;;;;;;9.82;3.38;;;;;;;;;;7367067;19;20409;-70
2023/07/24 06:41:39;;;;;;;14.82;3.28;;;;;;;;;;7366610;19;20014;-70
2023/07/24 06:44:05;;;;;;;8.15;3.00;;;;;;;;;;7366837;19;20014;-71
2023/07/24 06:46:30;;;;;;;16.58;3.38;;;;;;;;;;7389466;19;20002;-70
2023/07/24 06:48:55;;;;;;;7.03;2.75;;;;;;;;;;7367585;19;20010;-70
2023/07/24 06:51:21;;;;;;;8.35;2.85;;;;;;;;;;7366512;19;20400;-70
2023/07/24 06:53:46;;;;;;;6.40;2.47;;;;;;;;;;7366646;19;20013;-70
2023/07/24 06:56:11;;;;;;;8.13;3.42;;;;;;;;;;7364795;19;20011;-70
2023/07/24 06:58:36;;;;;;;8.67;2.80;;;;;;;;;;7386148;19;20634;-70
2023/07/24 07:01:06;;;;;;;6.05;3.00;;;;;;;;;;7365045;19;20235;-70
2023/07/24 07:03:31;;;;;;;7.40;2.90;;;;;;;;;;7365971;19;20042;-70
2023/07/24 07:06:00;;;;;;;10.77;3.75;;;;;;;;;;7365734;19;20002;-70
2023/07/24 07:08:25;;;;;;;7.50;2.30;;;;;;;;;;7364729;19;20493;-70
2023/07/24 07:10:57;;;;;;;7.57;2.65;;;;;;;;;;7388146;19;20003;-70
2023/07/24 07:13:23;;;;;;;5.22;2.50;;;;;;;;;;7364679;19;20889;-70
2023/07/24 07:15:48;;;;;;;5.85;2.80;;;;;;;;;;7366868;19;20061;-71
2023/07/24 07:18:13;;;;;;;6.15;2.72;;;;;;;;;;7364065;19;20007;-71
2023/07/24 07:20:44;;;;;;;6.50;2.45;;;;;;;;;;7362258;19;20025;-71
2023/07/24 07:23:09;;;;;;;4.28;2.05;;;;;;;;;;7373042;19;20342;-71
2023/07/24 07:25:34;;;;;;;9.27;2.90;;;;;;;;;;7393956;19;20092;-71
2023/07/24 07:28:00;;;;;;;9.27;2.85;;;;;;;;;;7371035;19;20526;-71
2023/07/24 07:30:25;;;;;;;5.25;2.38;;;;;;;;;;7371803;19;20003;-71
2023/07/24 07:32:50;;;;;;;7.00;2.70;;;;;;;;;;7372888;19;20114;-71
2023/07/24 07:35:15;;;;;;;5.85;2.60;;;;;;;;;;7367480;19;21022;-71
2023/07/24 07:37:41;;;;;;;5.75;2.60;;;;;;;;;;7392957;19;20010;-71
2023/07/24 07:40:07;;;;;;;6.22;2.58;;;;;;;;;;7373425;19;20011;-70
2023/07/24 07:42:32;;;;;;;6.43;2.70;;;;;;;;;;7372167;19;20365;-70
2023/07/24 07:44:57;;;;;;;4.13;2.65;;;;;;;;;;7371023;19;20360;-70
2023/07/24 07:47:22;;;;;;;5.03;2.80;;;;;;;;;;7371814;19;20018;-71
2023/07/24 07:49:48;;;;;;;7.28;2.90;;;;;;;;;;7393372;19;20029;-71
2023/07/24 07:52:16;;;;;;;7.28;2.88;;;;;;;;;;7372302;19;20648;-71
2023/07/24 07:54:46;;;;;;;5.65;2.72;;;;;;;;;;7375652;19;20431;-71
2023/07/24 07:57:11;;;;;;;5.45;2.80;;;;;;;;;;7375537;19;20034;-71
2023/07/24 07:59:36;;;;;;;6.63;2.85;;;;;;;;;;7377191;19;20014;-72
2023/07/24 08:02:01;;;;;;;7.60;3.03;;;;;;;;;;7372423;19;20025;-72
2023/07/24 08:04:27;;;;;;;6.32;2.90;;;;;;;;;;7394138;19;20013;-71
2023/07/24 08:06:52;;;;;;;7.13;2.53;;;;;;;;;;7371845;19;20505;-71
2023/07/24 08:09:17;;;;;;;6.05;2.47;;;;;;;;;;7372617;19;20021;-71
2023/07/24 08:11:43;;;;;;;5.90;2.22;;;;;;;;;;7372362;19;20002;-71
2023/07/24 08:14:08;;;;;;;5.90;2.60;;;;;;;;;;7372256;19;20003;-71
2023/07/24 08:16:33;;;;;;;7.82;2.83;;;;;;;;;;7389813;19;20019;-71
2023/07/24 08:18:58;;;;;;;7.03;2.92;;;;;;;;;;7365490;19;20027;-71
2023/07/24 08:21:24;;;;;;;4.70;2.60;;;;;;;;;;7368106;19;20237;-71
2023/07/24 08:23:49;;;;;;;5.93;2.67;;;;;;;;;;7372106;19;20023;-71
2023/07/24 08:26:14;;;;;;;5.93;2.50;;;;;;;;;;7370684;19;20362;-72
2023/07/24 08:28:42;;;;;;;7.00;2.53;;;;;;;;;;7389594;19;20022;-70
2023/07/24 08:31:07;;;;;;;4.82;2.80;;;;;;;;;;7371612;19;20011;-70
2023/07/24 08:33:32;;;;;;;5.63;2.70;;;;;;;;;;7371533;19;20073;-71
2023/07/24 08:36:07;;;;;;;5.90;2.80;;;;;;;;;;7371225;19;20421;-70
2023/07/24 08:38:34;;;;;;;4.15;2.40;;;;;;;;;;7369596;19;20240;-70
2023/07/24 08:41:10;;;;;;;4.82;2.78;;;;;;;;;;7370578;19;20014;-70
2023/07/24 08:43:37;;;;;;;5.82;2.60;;;;;;;;;;7386664;19;20085;-70
2023/07/24 08:46:03;;;;;;;5.25;2.65;;;;;;;;;;7370208;19;20018;-71
2023/07/24 08:48:37;;;;;;;5.68;2.70;;;;;;;;;;7366454;19;20015;-70
2023/07/24 08:51:04;;;;;;;5.55;2.60;;;;;;;;;;7367651;19;20509;-70
2023/07/24 08:53:32;;;;;;;4.85;2.53;;;;;;;;;;7368603;19;20754;-70
2023/07/24 08:55:59;;;;;;;5.20;2.45;;;;;;;;;;7367048;19;20006;-72
2023/07/24 08:58:25;;;;;;;7.25;2.70;;;;;;;;;;7388361;19;20082;-70
2023/07/24 09:00:51;;;;;;;5.95;2.42;;;;;;;;;;7369015;19;21862;-69
2023/07/24 09:03:18;;;;;;;4.38;2.47;;;;;;;;;;7366237;19;20011;-70
2023/07/24 09:05:44;;;;;;;7.55;2.47;;;;;;;;;;7366023;19;20014;-69
2023/07/24 09:08:09;;;;;;;4.53;2.35;;;;;;;;;;7367385;19;20011;-69
2023/07/24 09:10:34;;;;;;;4.47;2.40;;;;;;;;;;7389869;19;20014;-69
2023/07/24 09:13:00;;;;;;;6.68;2.90;;;;;;;;;;7368709;19;20011;-68
2023/07/24 09:15:25;;;;;;;6.95;2.83;;;;;;;;;;7368956;19;20010;-69
2023/07/24 09:17:52;;;;;;;4.75;2.50;;;;;;;;;;7368593;19;20006;-69
2023/07/24 09:20:18;;;;;;;6.45;2.30;;;;;;;;;;7370147;19;20011;-70
2023/07/24 09:22:51;;;;;;;5.78;2.50;;;;;;;;;;7392597;19;20038;-70
2023/07/24 09:25:16;;;;;;;4.70;2.58;;;;;;;;;;7370713;19;20015;-70
2023/07/24 09:27:42;;;;;;;5.30;2.78;;;;;;;;;;7369096;19;20011;-70
2023/07/24 09:30:14;;;;;;;7.53;2.70;;;;;;;;;;7369863;19;20010;-70
2023/07/24 09:32:40;;;;;;;6.47;2.33;;;;;;;;;;7368253;19;20472;-71
2023/07/24 09:35:17;;;;;;;5.40;2.47;;;;;;;;;;7369755;19;20010;-70
2023/07/24 09:37:43;;;;;;;6.38;2.60;;;;;;;;;;7391623;19;20361;-70
2023/07/24 09:40:10;;;;;;;5.10;2.72;;;;;;;;;;7370656;19;20018;-70
2023/07/24 09:42:36;;;;;;;7.63;2.70;;;;;;;;;;7369125;19;20409;-68
2023/07/24 09:45:03;;;;;;;5.28;2.78;;;;;;;;;;7367985;19;20015;-70
2023/07/24 09:47:29;;;;;;;9.50;3.40;;;;;;;;;;7371127;19;20015;-69
2023/07/24 09:49:55;;;;;;;7.60;2.80;;;;;;;;;;7392390;19;20537;-70
2023/07/24 09:52:21;;;;;;;6.80;3.25;;;;;;;;;;7369557;19;20010;-70
2023/07/24 09:54:58;;;;;;;5.78;3.15;;;;;;;;;;7370373;19;20479;-71
2023/07/24 09:57:25;;;;;;;7.13;3.15;;;;;;;;;;7371717;19;20074;-70
2023/07/24 09:59:51;;;;;;;5.65;2.78;;;;;;;;;;7373819;19;20014;-71
2023/07/24 10:02:17;;;;;;;6.05;2.97;;;;;;;;;;7372517;19;20010;-71
2023/07/24 10:04:44;;;;;;;6.38;3.35;;;;;;;;;;7395312;19;20010;-70
2023/07/24 10:07:10;;;;;;;8.38;3.53;;;;;;;;;;7370780;19;20015;-70
2023/07/24 10:09:36;;;;;;;8.65;3.80;;;;;;;;;;7370896;19;20013;-69
2023/07/24 10:12:02;;;;;;;6.40;3.00;;;;;;;;;;7368210;19;20373;-69
2023/07/24 10:14:29;;;;;;;6.60;3.45;;;;;;;;;;7371630;19;20017;-69
2023/07/24 10:16:56;;;;;;;6.63;3.20;;;;;;;;;;7391515;19;20022;-70
2023/07/24 10:19:21;;;;;;;5.55;3.25;;;;;;;;;;7368414;19;20006;-69
2023/07/24 10:21:47;;;;;;;7.60;3.35;;;;;;;;;;7367441;19;20628;-70
2023/07/24 10:24:13;;;;;;;7.82;3.63;;;;;;;;;;7370873;19;20010;-70
2023/07/24 10:26:39;;;;;;;6.72;3.35;;;;;;;;;;7369743;19;20015;-70
2023/07/24 10:29:06;;;;;;;7.55;3.88;;;;;;;;;;7367692;19;20034;-70
2023/07/24 10:31:31;;;;;;;6.43;3.20;;;;;;;;;;7387318;19;20014;-70
2023/07/24 10:34:04;;;;;;;6.80;3.38;;;;;;;;;;7365576;19;20026;-70
2023/07/24 10:36:38;;;;;;;6.03;3.22;;;;;;;;;;7368694;19;20077;-69
2023/07/24 10:39:14;;;;;;;6.68;3.13;;;;;;;;;;7367565;19;20006;-70
2023/07/24 10:41:39;;;;;;;8.77;3.60;;;;;;;;;;7365949;19;20013;-69
2023/07/24 10:44:05;;;;;;;5.68;3.03;;;;;;;;;;7368395;19;20448;-69
2023/07/24 10:46:39;;;;;;;5.97;3.15;;;;;;;;;;7390455;19;20397;-69
2023/07/24 10:49:04;;;;;;;7.28;3.25;;;;;;;;;;7367635;19;20023;-70
2023/07/24 10:51:33;;;;;;;8.25;3.80;;;;;;;;;;7361490;19;20015;-70
2023/07/24 10:53:59;;;;;;;6.55;3.38;;;;;;;;;;7366832;19;20090;-71
2023/07/24 10:56:25;;;;;;;6.63;3.25;;;;;;;;;;7367380;19;20015;-70
2023/07/24 10:58:50;;;;;;;6.00;3.50;;;;;;;;;;7387408;19;20014;-70
2023/07/24 11:01:17;;;;;;;7.35;3.55;;;;;;;;;;7366755;19;20013;-70
2023/07/24 11:03:43;;;;;;;6.13;3.15;;;;;;;;;;7366904;19;20381;-70
2023/07/24 11:06:17;;;;;;;8.63;3.25;;;;;;;;;;7370926;19;20013;-70
2023/07/24 11:08:50;;;;;;;5.90;3.28;;;;;;;;;;7376077;19;20010;-70
2023/07/24 11:11:15;;;;;;;8.25;3.30;;;;;;;;;;7369168;19;20011;-70
2023/07/24 11:13:41;;;;;;;6.05;3.33;;;;;;;;;;7393193;19;20003;-69
2023/07/24 11:16:07;;;;;;;7.95;3.47;;;;;;;;;;7368756;19;20468;-70
2023/07/24 11:18:43;;;;;;;6.18;3.38;;;;;;;;;;7365259;19;20091;-69
2023/07/24 11:21:09;;;;;;;6.28;3.65;;;;;;;;;;7366154;19;20471;-69
2023/07/24 11:23:35;;;;;;;6.03;3.33;;;;;;;;;;7368179;19;20006;-68
2023/07/24 11:26:01;;;;;;;9.00;3.88;;;;;;;;;;7370574;19;20944;-71
2023/07/24 11:28:26;;;;;;;5.78;3.47;;;;;;;;;;7388225;19;20084;-69
2023/07/24 11:30:51;;;;;;;8.85;3.67;;;;;;;;;;7365687;19;20499;-69
2023/07/24 11:33:17;;;;;;;8.07;3.67;;;;;;;;;;7366024;19;20018;-70
2023/07/24 11:35:43;;;;;;;6.97;3.20;;;;;;;;;;7363766;19;20501;-70
2023/07/24 11:38:09;;;;;;;5.85;3.20;;;;;;;;;;7362385;19;20023;-69
2023/07/24 11:40:36;;;;;;;5.47;3.03;;;;;;;;;;7386057;19;20074;-70
2023/07/24 11:43:02;;;;;;;6.55;3.60;;;;;;;;;;7365661;19;20127;-65
2023/07/24 11:45:28;;;;;;;6.10;3.42;;;;;;;;;;7362568;19;20017;-65
2023/07/24 11:47:54;;;;;;;5.63;3.20;;;;;;;;;;7364302;19;20078;-65
2023/07/24 11:50:20;;;;;;;5.68;3.17;;;;;;;;;;7365440;19;20024;-70
2023/07/24 11:52:55;;;;;;;6.80;3.22;;;;;;;;;;7387958;19;20087;-72
2023/07/24 11:55:31;;;;;;;7.18;3.33;;;;;;;;;;7365181;19;20365;-73
2023/07/24 11:58:00;;;;;;;6.22;3.35;;;;;;;;;;7364911;19;20021;-73
2023/07/24 12:00:27;;;;;;;5.53;3.17;;;;;;;;;;7364816;19;20854;-71
2023/07/24 12:02:53;;;;;;;6.07;3.10;;;;;;;;;;7366231;19;20025;-71
2023/07/24 12:05:18;;;;;;;11.93;3.75;;;;;;;;;;7366654;19;20007;-72
2023/07/24 12:07:47;;;;;;;5.60;2.90;;;;;;;;;;7388345;19;20012;-70
2023/07/24 12:10:25;;;;;;;6.63;3.75;;;;;;;;;;7373785;19;20006;-71
2023/07/24 12:12:50;;;;;;;6.20;3.30;;;;;;;;;;7368463;19;20045;-73
2023/07/24 12:15:16;;;;;;;6.10;3.47;;;;;;;;;;7371563;19;20509;-72
2023/07/24 12:17:42;;;;;;;6.32;3.35;;;;;;;;;;7371433;19;20521;-72
2023/07/24 12:20:09;;;;;;;5.78;3.50;;;;;;;;;;7373124;19;20463;-72
2023/07/24 12:22:35;;;;;;;7.00;3.30;;;;;;;;;;7392731;19;20010;-71
2023/07/24 12:25:02;;;;;;;6.70;3.40;;;;;;;;;;7372619;19;20525;-71
2023/07/24 12:27:27;;;;;;;5.15;3.30;;;;;;;;;;7372557;19;20010;-71
2023/07/24 12:29:52;;;;;;;6.53;3.38;;;;;;;;;;7372465;19;20694;-72
2023/07/24 12:32:18;;;;;;;7.57;3.17;;;;;;;;;;7370925;19;20480;-71
2023/07/24 12:34:46;;;;;;;5.82;3.15;;;;;;;;;;7393264;19;20015;-71
2023/07/24 12:37:11;;;;;;;5.32;2.95;;;;;;;;;;7370432;19;20010;-71
2023/07/24 12:39:37;;;;;;;5.53;3.15;;;;;;;;;;7370768;19;20369;-71
2023/07/24 12:42:02;;;;;;;5.00;2.90;;;;;;;;;;7371046;19;20380;-71
2023/07/24 12:44:28;;;;;;;6.43;3.42;;;;;;;;;;7370914;19;20111;-71
2023/07/24 12:46:53;;;;;;;8.95;3.53;;;;;;;;;;7392272;19;20010;-71
2023/07/24 12:49:18;;;;;;;6.45;3.45;;;;;;;;;;7370490;19;20014;-71
2023/07/24 12:51:44;;;;;;;6.22;3.17;;;;;;;;;;7370722;19;20022;-71
2023/07/24 12:54:09;;;;;;;6.07;3.10;;;;;;;;;;7374295;19;20492;-71
2023/07/24 12:56:34;;;;;;;4.80;2.80;;;;;;;;;;7375207;19;20255;-71
2023/07/24 12:59:01;;;;;;;5.47;3.45;;;;;;;;;;7375233;19;20025;-71
2023/07/24 13:01:28;;;;;;;7.40;2.95;;;;;;;;;;7392160;19;20019;-71
2023/07/24 13:03:54;;;;;;;6.93;3.28;;;;;;;;;;7371851;19;20865;-71
2023/07/24 13:06:19;;;;;;;6.20;3.47;;;;;;;;;;7371796;19;20077;-72
2023/07/24 13:08:44;;;;;;;6.78;3.47;;;;;;;;;;7369470;19;20762;-71
2023/07/24 13:11:10;;;;;;;7.15;3.80;;;;;;;;;;7370017;19;20002;-71
2023/07/24 13:13:36;;;;;;;5.88;3.15;;;;;;;;;;7380465;19;20105;-71
2023/07/24 13:16:02;;;;;;;5.60;3.03;;;;;;;;;;7368470;19;19994;-71
2023/07/24 13:18:28;;;;;;;5.97;3.35;;;;;;;;;;7364196;19;20018;-71
2023/07/24 13:20:53;;;;;;;6.60;3.53;;;;;;;;;;7367651;19;20395;-72
2023/07/24 13:23:18;;;;;;;6.68;3.25;;;;;;;;;;7365377;19;20002;-71
2023/07/24 13:25:44;;;;;;;5.30;2.90;;;;;;;;;;7388026;19;20006;-71
2023/07/24 13:28:09;;;;;;;5.03;2.80;;;;;;;;;;7365348;19;20011;-72
2023/07/24 13:30:35;;;;;;;6.80;3.13;;;;;;;;;;7367515;19;20023;-71
2023/07/24 13:33:00;;;;;;;5.63;3.15;;;;;;;;;;7367366;19;20007;-71
2023/07/24 13:35:25;;;;;;;7.13;3.08;;;;;;;;;;7365784;19;20007;-70
2023/07/24 13:37:51;;;;;;;11.00;3.25;;;;;;;;;;7388821;19;20078;-71
2023/07/24 13:40:16;;;;;;;11.20;4.35;;;;;;;;;;7376656;19;20110;-72
2023/07/24 13:42:41;;;;;;;9.68;3.92;;;;;;;;;;7367767;19;20002;-74
2023/07/24 13:45:07;;;;;;;10.13;3.60;;;;;;;;;;7368444;19;20041;-74
2023/07/24 13:47:33;;;;;;;20.42;4.38;;;;;;;;;;7368114;19;20006;-71
2023/07/24 13:49:59;;;;;;;9.70;4.78;;;;;;;;;;7369353;19;20089;-74
2023/07/24 13:52:25;;;;;;;8.15;3.92;;;;;;;;;;7389660;19;20053;-73
2023/07/24 13:54:50;;;;;;;6.68;3.70;;;;;;;;;;7365336;19;20003;-73
2023/07/24 13:57:16;;;;;;;5.53;3.17;;;;;;;;;;7366886;19;20465;-73
2023/07/24 13:59:41;;;;;;;6.30;2.85;;;;;;;;;;7366933;19;20558;-72
2023/07/24 14:02:06;;;;;;;4.22;2.70;;;;;;;;;;7365876;19;20025;-72
2023/07/24 14:04:32;;;;;;;4.30;2.30;;;;;;;;;;7388771;19;20007;-72
2023/07/24 14:06:57;;;;;;;5.72;2.50;;;;;;;;;;7367522;19;20396;-72
2023/07/24 14:09:22;;;;;;;5.22;2.70;;;;;;;;;;7367374;19;20007;-71
2023/07/24 14:11:48;;;;;;;5.20;2.90;;;;;;;;;;7365370;19;20011;-72
2023/07/24 14:14:13;;;;;;;4.63;2.83;;;;;;;;;;7366799;19;20077;-72
2023/07/24 14:16:39;;;;;;;4.78;2.65;;;;;;;;;;7386742;19;20003;-72
2023/07/24 14:19:04;;;;;;;5.18;2.65;;;;;;;;;;7365810;19;20043;-73
2023/07/24 14:21:29;;;;;;;6.00;2.92;;;;;;;;;;7365896;19;20387;-72
2023/07/24 14:23:55;;;;;;;5.60;2.63;;;;;;;;;;7367740;19;20003;-69
2023/07/24 14:26:20;;;;;;;7.00;2.75;;;;;;;;;;7363098;19;20025;-68
2023/07/24 14:28:46;;;;;;;9.23;3.22;;;;;;;;;;7382265;19;20435;-64
2023/07/24 14:31:11;;;;;;;6.75;2.80;;;;;;;;;;7361666;19;20444;-66
2023/07/24 14:33:36;;;;;;;5.03;2.88;;;;;;;;;;7364142;19;20018;-63
2023/07/24 14:36:02;;;;;;;5.80;2.85;;;;;;;;;;7365000;19;19998;-63
2023/07/24 14:38:27;;;;;;;4.43;2.47;;;;;;;;;;7362616;19;20142;-66